Terminal Aerodrome Forecast
Issued by NWS

Home | Current Version | Previous Version | Text Only | Print | Product List | Glossary On
Versions: 1 2 3 4 5 6 7 8 9 10 11 12 13 14
000
FTUS46 KMTR 240500
TAFSTS
TAF
KSTS 240535Z 2406/2506 32004KT P6SM SKC
     FM240900 00000KT P6SM SCT100
     FM241100 00000KT P6SM OVC008
     FM241600 00000KT P6SM FEW008 BKN250
     FM241900 18008KT P6SM BKN250
     FM250300 15005KT P6SM BKN050=

USA.gov is the U.S. government's official web portal to all federal, state and local government web resources and services.